^^
Meteo Knjazevac Station Historical Data
Daily Summary for August 05, 2022 Units:  Both    English   Metric
Daily Weekly Monthly Yearly Custom
  High: Low: Average:
Temperature: 94.8 °F /  34.9 °C 55.6 °F /  13.1 °C 75.7 °F /  24.3 °C
Dew Point: 64.3 °F /  17.9 °C 53 °F /  11.7 °C 59.3 °F /  15.2 °C
Humidity: 93% 33.9% 61%
Wind Speed: 10.9mph /  17.5km/h - 3.6mph /  5.8km/h
Wind Gust: 13mph /  20.9km/h - -
Wind- - SSW
Pressure: 30.06 in /  1017.8 hPa 29.94 in /  1013.8 hPa -
Precipitation: 0.00 in /  0 mm    
Historical Graphs
 
 
Tabular Data for August 05, 2022
Time Temperature Dew Point Pressure Wind Wind Speed Wind Gust Humidity Rainfall Rate (Hourly) solar Conditions
00:04 64 °F /  17.8 °C 56.9 °F /  13.8 °C 30.06in /  1017.8hPa WSW 1.5mph /  2.4km/h 2mph /  3.2km/h 77.7% 0.00in /  0mm 0 W/m2
00:09 63.7 °F /  17.6 °C 56.7 °F /  13.7 °C 30.06in /  1017.8hPa WNW 2.6mph /  4.2km/h 3mph /  4.8km/h 78% 0.00in /  0mm 0 W/m2
00:14 63.6 °F /  17.6 °C 56.6 °F /  13.7 °C 30.06in /  1017.8hPa NW 2.6mph /  4.2km/h 1.8mph /  2.9km/h 78% 0.00in /  0mm 0 W/m2
00:19 63.5 °F /  17.5 °C 56.5 °F /  13.6 °C 30.06in /  1017.8hPa NNW 1.7mph /  2.7km/h 3mph /  4.8km/h 78% 0.00in /  0mm 0 W/m2
00:24 63.5 °F /  17.5 °C 56.5 °F /  13.6 °C 30.06in /  1017.8hPa NW 2.2mph /  3.5km/h 3mph /  4.8km/h 78% 0.00in /  0mm 0 W/m2
00:29 63.5 °F /  17.5 °C 56.7 °F /  13.7 °C 30.06in /  1017.8hPa NW 2.1mph /  3.4km/h 1.3mph /  2.1km/h 78.6% 0.00in /  0mm 0 W/m2
00:34 63.4 °F /  17.4 °C 56.8 °F /  13.8 °C 30.06in /  1017.8hPa NW 1.1mph /  1.8km/h 2mph /  3.2km/h 79% 0.00in /  0mm 0 W/m2
00:39 63.3 °F /  17.4 °C 56.7 °F /  13.7 °C 30.06in /  1017.8hPa NW 1.8mph /  2.9km/h 2mph /  3.2km/h 79% 0.00in /  0mm 0 W/m2
00:44 63.2 °F /  17.3 °C 56.6 °F /  13.7 °C 30.06in /  1017.8hPa NW 1.5mph /  2.4km/h 2mph /  3.2km/h 79% 0.00in /  0mm 0 W/m2
00:49 63 °F /  17.2 °C 56.5 °F /  13.6 °C 30.06in /  1017.8hPa WNW 2.1mph /  3.4km/h 2mph /  3.2km/h 79.4% 0.00in /  0mm 0 W/m2
00:54 62.9 °F /  17.2 °C 56.3 °F /  13.5 °C 30.06in /  1017.8hPa West 1.4mph /  2.3km/h 2mph /  3.2km/h 79.1% 0.00in /  0mm 0 W/m2
00:59 62.5 °F /  16.9 °C 56.3 °F /  13.5 °C 30.06in /  1017.8hPa West 1.9mph /  3.1km/h 2mph /  3.2km/h 80% 0.00in /  0mm 0 W/m2
01:04 62.3 °F /  16.8 °C 56.1 °F /  13.4 °C 30.06in /  1017.8hPa NW 1mph /  1.6km/h 2mph /  3.2km/h 80% 0.00in /  0mm 0 W/m2
01:09 62.1 °F /  16.7 °C 56.1 °F /  13.4 °C 30.06in /  1017.8hPa NW 1.5mph /  2.4km/h 2mph /  3.2km/h 80.8% 0.00in /  0mm 0 W/m2
01:14 61.8 °F /  16.6 °C 55.8 °F /  13.2 °C 30.06in /  1017.8hPa West 2mph /  3.2km/h 2mph /  3.2km/h 80.7% 0.00in /  0mm 0 W/m2
01:19 61.5 °F /  16.4 °C 55.6 °F /  13.1 °C 30.06in /  1017.8hPa West 2.2mph /  3.5km/h 2mph /  3.2km/h 81% 0.00in /  0mm 0 W/m2
01:24 61.3 °F /  16.3 °C 56 °F /  13.3 °C 30.06in /  1017.8hPa WNW 2.2mph /  3.5km/h 2mph /  3.2km/h 82.6% 0.00in /  0mm 0 W/m2
01:29 61.2 °F /  16.2 °C 56 °F /  13.3 °C 30.06in /  1017.8hPa WNW 1.2mph /  1.9km/h 3mph /  4.8km/h 82.9% 0.00in /  0mm 0 W/m2
01:34 61 °F /  16.1 °C 55.8 °F /  13.2 °C 30.06in /  1017.8hPa WNW 1.4mph /  2.3km/h 1.3mph /  2.1km/h 83% 0.00in /  0mm 0 W/m2
01:39 60.8 °F /  16 °C 55.6 °F /  13.1 °C 30.06in /  1017.8hPa WNW 1.4mph /  2.3km/h 2mph /  3.2km/h 83% 0.00in /  0mm 0 W/m2
01:44 60.7 °F /  15.9 °C 55.6 °F /  13.1 °C 30.06in /  1017.8hPa NW 1.4mph /  2.3km/h 2mph /  3.2km/h 83.3% 0.00in /  0mm 0 W/m2
01:49 60.4 °F /  15.8 °C 55.4 °F /  13 °C 30.06in /  1017.8hPa WNW 2.1mph /  3.4km/h 2mph /  3.2km/h 83.4% 0.00in /  0mm 0 W/m2
01:54 60.3 °F /  15.7 °C 55.4 °F /  13 °C 30.06in /  1017.8hPa West 1.2mph /  1.9km/h 1.1mph /  1.8km/h 84% 0.00in /  0mm 0 W/m2
01:59 60 °F /  15.6 °C 55.1 °F /  12.8 °C 30.06in /  1017.8hPa WNW 1.9mph /  3.1km/h 2mph /  3.2km/h 84% 0.00in /  0mm 0 W/m2
02:04 59.7 °F /  15.4 °C 54.9 °F /  12.7 °C 30.06in /  1017.8hPa WNW 2.1mph /  3.4km/h 2mph /  3.2km/h 84.1% 0.00in /  0mm 0 W/m2
02:09 59.5 °F /  15.3 °C 55 °F /  12.8 °C 30.06in /  1017.8hPa WSW 2.3mph /  3.7km/h 2mph /  3.2km/h 85% 0.00in /  0mm 0 W/m2
02:14 59.4 °F /  15.2 °C 54.8 °F /  12.7 °C 30.06in /  1017.8hPa West 3.6mph /  5.8km/h 3.6mph /  5.8km/h 85% 0.00in /  0mm 0 W/m2
02:19 59.4 °F /  15.2 °C 54.8 °F /  12.7 °C 30.06in /  1017.8hPa West 4.6mph /  7.4km/h 3.6mph /  5.8km/h 85% 0.00in /  0mm 0 W/m2
02:24 59.4 °F /  15.2 °C 54.9 °F /  12.7 °C 30.06in /  1017.8hPa West 3.9mph /  6.3km/h 5mph /  8km/h 85% 0.00in /  0mm 0 W/m2
02:29 59.4 °F /  15.2 °C 54.9 °F /  12.7 °C 30.06in /  1017.8hPa West 2.6mph /  4.2km/h 5mph /  8km/h 85% 0.00in /  0mm 0 W/m2
02:34 59.5 °F /  15.3 °C 55 °F /  12.8 °C 30.06in /  1017.8hPa West 2.6mph /  4.2km/h 3mph /  4.8km/h 85% 0.00in /  0mm 0 W/m2
02:39 59.5 °F /  15.3 °C 54.9 °F /  12.7 °C 30.06in /  1017.8hPa West 2.8mph /  4.5km/h 2mph /  3.2km/h 85% 0.00in /  0mm 0 W/m2
02:44 59.5 °F /  15.3 °C 55 °F /  12.8 °C 30.06in /  1017.8hPa West 3.3mph /  5.3km/h 3mph /  4.8km/h 85% 0.00in /  0mm 0 W/m2
02:49 59.4 °F /  15.2 °C 54.8 °F /  12.7 °C 30.06in /  1017.8hPa West 3.6mph /  5.8km/h 3mph /  4.8km/h 85% 0.00in /  0mm 0 W/m2
02:54 59.4 °F /  15.2 °C 54.8 °F /  12.7 °C 30.06in /  1017.8hPa West 3.5mph /  5.6km/h 4mph /  6.4km/h 85% 0.00in /  0mm 0 W/m2
02:59 59.4 °F /  15.2 °C 54.8 °F /  12.7 °C 30.06in /  1017.8hPa West 3.8mph /  6.1km/h 4mph /  6.4km/h 85% 0.00in /  0mm 0 W/m2
03:04 59.2 °F /  15.1 °C 54.7 °F /  12.6 °C 30.06in /  1017.8hPa West 3.9mph /  6.3km/h 3.6mph /  5.8km/h 85% 0.00in /  0mm 0 W/m2
03:09 59.1 °F /  15.1 °C 54.6 °F /  12.6 °C 30.06in /  1017.8hPa West 3.3mph /  5.3km/h 5mph /  8km/h 85% 0.00in /  0mm 0 W/m2
03:14 59 °F /  15 °C 54.8 °F /  12.7 °C 30.06in /  1017.8hPa West 2mph /  3.2km/h 3mph /  4.8km/h 86% 0.00in /  0mm 0 W/m2
03:19 58.8 °F /  14.9 °C 54.6 °F /  12.6 °C 30.06in /  1017.8hPa West 1.7mph /  2.7km/h 1.6mph /  2.6km/h 86% 0.00in /  0mm 0 W/m2
03:24 58.7 °F /  14.8 °C 54.5 °F /  12.5 °C 30.06in /  1017.8hPa West 1.3mph /  2.1km/h 2mph /  3.2km/h 86% 0.00in /  0mm 0 W/m2
03:29 58.5 °F /  14.7 °C 54.3 °F /  12.4 °C 30.06in /  1017.8hPa WNW 1.5mph /  2.4km/h 1.3mph /  2.1km/h 86% 0.00in /  0mm 0 W/m2
03:34 58.2 °F /  14.6 °C 54 °F /  12.2 °C 30.06in /  1017.8hPa WNW 2.2mph /  3.5km/h 2mph /  3.2km/h 86% 0.00in /  0mm 0 W/m2
03:39 58 °F /  14.4 °C 54.4 °F /  12.4 °C 30.06in /  1017.8hPa West 1.9mph /  3.1km/h 2mph /  3.2km/h 87.7% 0.00in /  0mm 0 W/m2
03:44 57.7 °F /  14.3 °C 54.2 °F /  12.3 °C 30.06in /  1017.8hPa WNW 1mph /  1.6km/h 2mph /  3.2km/h 88% 0.00in /  0mm 0 W/m2
03:49 57.6 °F /  14.2 °C 54 °F /  12.2 °C 30.06in /  1017.8hPa NNW 0.9mph /  1.4km/h 2mph /  3.2km/h 88% 0.00in /  0mm 0 W/m2
03:54 57.5 °F /  14.2 °C 54.2 °F /  12.3 °C 30.06in /  1017.8hPa NW 1.3mph /  2.1km/h 2mph /  3.2km/h 88.9% 0.00in /  0mm 0 W/m2
03:59 57.2 °F /  14 °C 54 °F /  12.2 °C 30.06in /  1017.8hPa WNW 1.8mph /  2.9km/h 2mph /  3.2km/h 89% 0.00in /  0mm 0 W/m2
04:04 57.2 °F /  14 °C 54 °F /  12.2 °C 30.06in /  1017.8hPa WNW 1.3mph /  2.1km/h 2mph /  3.2km/h 89% 0.00in /  0mm 0 W/m2
04:09 57.2 °F /  14 °C 54 °F /  12.2 °C 30.06in /  1017.8hPa WNW 2mph /  3.2km/h 2mph /  3.2km/h 89% 0.00in /  0mm 0 W/m2
04:14 57 °F /  13.9 °C 53.8 °F /  12.1 °C 30.06in /  1017.8hPa WNW 1.6mph /  2.6km/h 2mph /  3.2km/h 89% 0.00in /  0mm 0 W/m2
04:19 56.9 °F /  13.8 °C 53.7 °F /  12.1 °C 30.06in /  1017.8hPa WNW 2.3mph /  3.7km/h 2mph /  3.2km/h 89% 0.00in /  0mm 0 W/m2
04:24 56.8 °F /  13.8 °C 53.7 °F /  12.1 °C 30.06in /  1017.8hPa West 3.6mph /  5.8km/h 2.9mph /  4.7km/h 89.4% 0.00in /  0mm 0 W/m2
04:29 56.8 °F /  13.8 °C 53.9 °F /  12.2 °C 30.06in /  1017.8hPa West 4.2mph /  6.8km/h 5mph /  8km/h 90% 0.00in /  0mm 0 W/m2
04:34 56.8 °F /  13.8 °C 53.9 °F /  12.2 °C 30.06in /  1017.8hPa West 4.7mph /  7.6km/h 4mph /  6.4km/h 90% 0.00in /  0mm 0 W/m2
04:39 56.8 °F /  13.8 °C 53.9 °F /  12.2 °C 30.06in /  1017.8hPa West 4.5mph /  7.2km/h 4mph /  6.4km/h 90% 0.00in /  0mm 0 W/m2
04:44 56.8 °F /  13.8 °C 53.9 °F /  12.2 °C 30.06in /  1017.8hPa WSW 2.7mph /  4.3km/h 2mph /  3.2km/h 90% 0.00in /  0mm 0 W/m2
04:49 56.7 °F /  13.7 °C 53.8 °F /  12.1 °C 30.06in /  1017.8hPa WSW 2.5mph /  4km/h 3mph /  4.8km/h 90% 0.00in /  0mm 0 W/m2
04:54 56.7 °F /  13.7 °C 53.8 °F /  12.1 °C 30.06in /  1017.8hPa West 3.1mph /  5km/h 3mph /  4.8km/h 90% 0.00in /  0mm 0 W/m2
04:59 56.7 °F /  13.7 °C 53.8 °F /  12.1 °C 30.06in /  1017.8hPa WNW 3mph /  4.8km/h 3mph /  4.8km/h 90% 0.00in /  0mm 0 W/m2
05:04 56.6 °F /  13.7 °C 53.7 °F /  12.1 °C 30.06in /  1017.8hPa West 3.1mph /  5km/h 3mph /  4.8km/h 90% 0.00in /  0mm 0 W/m2
05:09 56.5 °F /  13.6 °C 53.6 °F /  12 °C 30.06in /  1017.8hPa West 3.5mph /  5.6km/h 2.5mph /  4km/h 90% 0.00in /  0mm 0 W/m2
05:14 56.4 °F /  13.6 °C 53.5 °F /  11.9 °C 30.06in /  1017.8hPa West 2.3mph /  3.7km/h 3mph /  4.8km/h 90% 0.00in /  0mm 1 W/m2
05:19 56.2 °F /  13.4 °C 53.3 °F /  11.8 °C 30.06in /  1017.8hPa West 2.3mph /  3.7km/h 2mph /  3.2km/h 90% 0.00in /  0mm 2 W/m2
05:24 56.1 °F /  13.4 °C 53.2 °F /  11.8 °C 30.06in /  1017.8hPa West 1.5mph /  2.4km/h 1.6mph /  2.6km/h 90% 0.00in /  0mm 4 W/m2
05:29 55.9 °F /  13.3 °C 53 °F /  11.7 °C 30.06in /  1017.8hPa West 2.2mph /  3.5km/h 2mph /  3.2km/h 90% 0.00in /  0mm 6 W/m2
05:34 55.9 °F /  13.3 °C 53.3 °F /  11.8 °C 30.06in /  1017.8hPa West 1.5mph /  2.4km/h 2mph /  3.2km/h 90.9% 0.00in /  0mm 10 W/m2
05:39 55.8 °F /  13.2 °C 53.2 °F /  11.8 °C 30.06in /  1017.8hPa WNW 1mph /  1.6km/h 2mph /  3.2km/h 91% 0.00in /  0mm 12 W/m2
05:44 55.8 °F /  13.2 °C 53.2 °F /  11.8 °C 30.06in /  1017.8hPa NW 1mph /  1.6km/h 1mph /  1.6km/h 91% 0.00in /  0mm 16 W/m2
05:49 55.6 °F /  13.1 °C 53 °F /  11.7 °C 30.06in /  1017.8hPa NNW 1.2mph /  1.9km/h 2mph /  3.2km/h 91% 0.00in /  0mm 21 W/m2
05:54 55.6 °F /  13.1 °C 53 °F /  11.7 °C 30.06in /  1017.8hPa WNW 2.6mph /  4.2km/h 2.7mph /  4.3km/h 91% 0.00in /  0mm 25 W/m2
05:59 55.6 °F /  13.1 °C 53 °F /  11.7 °C 30.06in /  1017.8hPa WSW 3.7mph /  6km/h 4mph /  6.4km/h 91% 0.00in /  0mm 30 W/m2
06:04 55.6 °F /  13.1 °C 53 °F /  11.7 °C 30.06in /  1017.8hPa WSW 4mph /  6.4km/h 5mph /  8km/h 91% 0.00in /  0mm 39 W/m2
06:09 55.6 °F /  13.1 °C 53 °F /  11.7 °C 30.06in /  1017.8hPa West 3.4mph /  5.5km/h 5mph /  8km/h 91% 0.00in /  0mm 53 W/m2
06:14 55.6 °F /  13.1 °C 53 °F /  11.7 °C 30.06in /  1017.8hPa West 3.5mph /  5.6km/h 4mph /  6.4km/h 91% 0.00in /  0mm 61 W/m2
06:19 55.8 °F /  13.2 °C 53.3 °F /  11.8 °C 30.06in /  1017.8hPa West 2.7mph /  4.3km/h 4mph /  6.4km/h 91.4% 0.00in /  0mm 73 W/m2
06:24 55.8 °F /  13.2 °C 53.7 °F /  12.1 °C 30.06in /  1017.8hPa WNW 2.9mph /  4.7km/h 2.2mph /  3.5km/h 92.7% 0.00in /  0mm 85 W/m2
06:29 55.9 °F /  13.3 °C 53.9 °F /  12.2 °C 30.06in /  1017.8hPa NW 2.2mph /  3.5km/h 4mph /  6.4km/h 93% 0.00in /  0mm 96 W/m2
06:34 56.2 °F /  13.4 °C 54.2 °F /  12.3 °C 30.06in /  1017.8hPa NW 1.7mph /  2.7km/h 2mph /  3.2km/h 93% 0.00in /  0mm 109 W/m2
06:39 56.3 °F /  13.5 °C 53.7 °F /  12.1 °C 30.06in /  1017.8hPa NW 1mph /  1.6km/h 2mph /  3.2km/h 91% 0.00in /  0mm 121 W/m2
06:44 56.5 °F /  13.6 °C 53.9 °F /  12.2 °C 30.06in /  1017.8hPa NNW 0.3mph /  0.5km/h 1mph /  1.6km/h 91% 0.00in /  0mm 135 W/m2
06:49 56.5 °F /  13.6 °C 53.9 °F /  12.2 °C 30.06in /  1017.8hPa NNW 0.9mph /  1.4km/h 1mph /  1.6km/h 91% 0.00in /  0mm 146 W/m2
06:54 56.7 °F /  13.7 °C 54.1 °F /  12.3 °C 30.06in /  1017.8hPa Calm   1mph /  1.6km/h 91% 0.00in /  0mm 162 W/m2
06:59 56.8 °F /  13.8 °C 54.2 °F /  12.3 °C 30.06in /  1017.8hPa WSW 1.9mph /  3.1km/h 0.9mph /  1.4km/h 91% 0.00in /  0mm 176 W/m2
07:04 57.1 °F /  13.9 °C 54.5 °F /  12.5 °C 30.06in /  1017.8hPa WNW 2.2mph /  3.5km/h 2mph /  3.2km/h 91% 0.00in /  0mm 190 W/m2
07:09 57.5 °F /  14.2 °C 54.9 °F /  12.7 °C 30.06in /  1017.8hPa NW 2.3mph /  3.7km/h 2mph /  3.2km/h 91% 0.00in /  0mm 205 W/m2
07:14 58 °F /  14.4 °C 55.4 °F /  13 °C 30.06in /  1017.8hPa NW 2.2mph /  3.5km/h 3mph /  4.8km/h 91% 0.00in /  0mm 217 W/m2
07:19 58.5 °F /  14.7 °C 55.8 °F /  13.2 °C 30.06in /  1017.8hPa WNW 1.3mph /  2.1km/h 2mph /  3.2km/h 90.7% 0.00in /  0mm 235 W/m2
07:24 59 °F /  15 °C 56.1 °F /  13.4 °C 30.06in /  1017.8hPa West 2.5mph /  4km/h 2.7mph /  4.3km/h 90% 0.00in /  0mm 251 W/m2
07:29 59.5 °F /  15.3 °C 56.5 °F /  13.6 °C 30.06in /  1017.8hPa West 2.7mph /  4.3km/h 3mph /  4.8km/h 90% 0.00in /  0mm 266 W/m2
07:34 59.9 °F /  15.5 °C 56.7 °F /  13.7 °C 30.06in /  1017.8hPa West 2.3mph /  3.7km/h 3mph /  4.8km/h 89.1% 0.00in /  0mm 283 W/m2
07:39 60.4 °F /  15.8 °C 56.9 °F /  13.8 °C 30.06in /  1017.8hPa West 2.7mph /  4.3km/h 2mph /  3.2km/h 88.3% 0.00in /  0mm 298 W/m2
07:44 60.9 °F /  16.1 °C 57.3 °F /  14.1 °C 30.06in /  1017.8hPa WNW 2.3mph /  3.7km/h 3mph /  4.8km/h 88% 0.00in /  0mm 316 W/m2
07:49 61.4 °F /  16.3 °C 57.6 °F /  14.2 °C 30.06in /  1017.8hPa WNW 1.5mph /  2.4km/h 2mph /  3.2km/h 87% 0.00in /  0mm 332 W/m2
07:54 61.9 °F /  16.6 °C 57.7 °F /  14.3 °C 30.06in /  1017.8hPa NW 1mph /  1.6km/h 1mph /  1.6km/h 86% 0.00in /  0mm 350 W/m2
07:59 62.4 °F /  16.9 °C 57.9 °F /  14.4 °C 30.06in /  1017.8hPa Calm   2mph /  3.2km/h 85.1% 0.00in /  0mm 369 W/m2
08:04 62.9 °F /  17.2 °C 58.3 °F /  14.6 °C 30.06in /  1017.8hPa NNW 1.7mph /  2.7km/h 0.9mph /  1.4km/h 85% 0.00in /  0mm 389 W/m2
08:09 63.7 °F /  17.6 °C 59.1 °F /  15.1 °C 30.06in /  1017.8hPa NW 1.7mph /  2.7km/h 1.3mph /  2.1km/h 85% 0.00in /  0mm 409 W/m2
08:14 64.5 °F /  18.1 °C 59.4 °F /  15.2 °C 30.06in /  1017.8hPa WSW 1.8mph /  2.9km/h 1.1mph /  1.8km/h 83.7% 0.00in /  0mm 420 W/m2
08:19 64.9 °F /  18.3 °C 59.7 °F /  15.4 °C 30.06in /  1017.8hPa SW 1.2mph /  1.9km/h 2mph /  3.2km/h 83% 0.00in /  0mm 444 W/m2
08:24 65.6 °F /  18.7 °C 59.7 °F /  15.4 °C 30.06in /  1017.8hPa West 1.7mph /  2.7km/h 1mph /  1.6km/h 81.3% 0.00in /  0mm 461 W/m2
08:29 66.1 °F /  18.9 °C 59.8 °F /  15.4 °C 30.06in /  1017.8hPa NW 2.1mph /  3.4km/h 2mph /  3.2km/h 80% 0.00in /  0mm 478 W/m2
08:34 67.5 °F /  19.7 °C 60.2 °F /  15.7 °C 30.06in /  1017.8hPa North 2.2mph /  3.5km/h 2mph /  3.2km/h 77.3% 0.00in /  0mm 493 W/m2
08:39 69.1 °F /  20.6 °C 60.3 °F /  15.7 °C 30.06in /  1017.8hPa NE 3.6mph /  5.8km/h 3mph /  4.8km/h 73.4% 0.00in /  0mm 510 W/m2
08:44 70.1 °F /  21.2 °C 60.8 °F /  16 °C 30.06in /  1017.8hPa NE 4.1mph /  6.6km/h 4mph /  6.4km/h 72.3% 0.00in /  0mm 528 W/m2
08:49 71 °F /  21.7 °C 60.8 °F /  16 °C 30.06in /  1017.8hPa NE 4.9mph /  7.9km/h 5mph /  8km/h 70.1% 0.00in /  0mm 544 W/m2
08:54 71.8 °F /  22.1 °C 60.9 °F /  16.1 °C 30.06in /  1017.8hPa NE 4.3mph /  6.9km/h 3.4mph /  5.5km/h 68.6% 0.00in /  0mm 559 W/m2
08:59 72.3 °F /  22.4 °C 60.9 °F /  16.1 °C 30.06in /  1017.8hPa NE 4.7mph /  7.6km/h 6mph /  9.7km/h 67.4% 0.00in /  0mm 574 W/m2
09:04 72.9 °F /  22.7 °C 61.1 °F /  16.2 °C 30.06in /  1017.8hPa East 5.4mph /  8.7km/h 4mph /  6.4km/h 66.5% 0.00in /  0mm 589 W/m2
09:09 73.7 °F /  23.2 °C 61.4 °F /  16.3 °C 30.06in /  1017.8hPa East 4.9mph /  7.9km/h 6mph /  9.7km/h 65.4% 0.00in /  0mm 606 W/m2
09:14 74.5 °F /  23.6 °C 61.9 °F /  16.6 °C 30.06in /  1017.8hPa ENE 4.8mph /  7.7km/h 6mph /  9.7km/h 64.8% 0.00in /  0mm 617 W/m2
09:19 75 °F /  23.9 °C 62.1 °F /  16.7 °C 30.06in /  1017.8hPa NE 5.6mph /  9km/h 6mph /  9.7km/h 64.2% 0.00in /  0mm 638 W/m2
09:24 75.9 °F /  24.4 °C 62.7 °F /  17.1 °C 30.06in /  1017.8hPa NNE 4.4mph /  7.1km/h 7mph /  11.3km/h 63.8% 0.00in /  0mm 652 W/m2
09:29 76.8 °F /  24.9 °C 63.3 °F /  17.4 °C 30.06in /  1017.8hPa NE 5.4mph /  8.7km/h 5mph /  8km/h 63.2% 0.00in /  0mm 663 W/m2
09:34 77.4 °F /  25.2 °C 63 °F /  17.2 °C 30.06in /  1017.8hPa NE 4.4mph /  7.1km/h 7mph /  11.3km/h 61.1% 0.00in /  0mm 679 W/m2
09:39 77.7 °F /  25.4 °C 62.2 °F /  16.8 °C 30.06in /  1017.8hPa NE 5.4mph /  8.7km/h 7mph /  11.3km/h 58.9% 0.00in /  0mm 690 W/m2
09:44 77.9 °F /  25.5 °C 62 °F /  16.7 °C 30.06in /  1017.8hPa ENE 5.2mph /  8.4km/h 7mph /  11.3km/h 58.1% 0.00in /  0mm 704 W/m2
09:49 78.3 °F /  25.7 °C 61.6 °F /  16.4 °C 30.06in /  1017.8hPa ENE 4.3mph /  6.9km/h 6mph /  9.7km/h 56.7% 0.00in /  0mm 718 W/m2
09:54 78.6 °F /  25.9 °C 61.3 °F /  16.3 °C 30.06in /  1017.8hPa ENE 5.7mph /  9.2km/h 7.8mph /  12.6km/h 55.3% 0.00in /  0mm 734 W/m2
09:59 79.2 °F /  26.2 °C 61.2 °F /  16.2 °C 30.06in /  1017.8hPa ENE 6.7mph /  10.8km/h 9mph /  14.5km/h 54.1% 0.00in /  0mm 745 W/m2
10:04 80 °F /  26.7 °C 61.9 °F /  16.6 °C 30.06in /  1017.8hPa NE 6.7mph /  10.8km/h 9mph /  14.5km/h 54.2% 0.00in /  0mm 758 W/m2
10:09 80.5 °F /  26.9 °C 61.9 °F /  16.6 °C 30.05in /  1017.5hPa ENE 6.5mph /  10.5km/h 8mph /  12.9km/h 53.3% 0.00in /  0mm 770 W/m2
10:14 81.2 °F /  27.3 °C 62.4 °F /  16.9 °C 30.05in /  1017.5hPa ENE 4.5mph /  7.2km/h 7mph /  11.3km/h 53.1% 0.00in /  0mm 784 W/m2
10:19 81.8 °F /  27.7 °C 62.8 °F /  17.1 °C 30.05in /  1017.5hPa ENE 6.5mph /  10.5km/h 7mph /  11.3km/h 52.6% 0.00in /  0mm 795 W/m2
10:24 82.3 °F /  27.9 °C 62.2 °F /  16.8 °C 30.05in /  1017.5hPa NE 7.1mph /  11.4km/h 7mph /  11.3km/h 50.7% 0.00in /  0mm 803 W/m2
10:29 82.7 °F /  28.2 °C 63 °F /  17.2 °C 30.05in /  1017.5hPa NE 6mph /  9.7km/h 4.2mph /  6.8km/h 51.5% 0.00in /  0mm 813 W/m2
10:34 83.3 °F /  28.5 °C 62.4 °F /  16.9 °C 30.05in /  1017.5hPa NE 7mph /  11.3km/h 7mph /  11.3km/h 49.3% 0.00in /  0mm 821 W/m2
10:39 83.6 °F /  28.7 °C 62.7 °F /  17.1 °C 30.05in /  1017.5hPa NE 7.4mph /  11.9km/h 9mph /  14.5km/h 49.6% 0.00in /  0mm 836 W/m2
10:44 84.3 °F /  29.1 °C 64.3 °F /  17.9 °C 30.05in /  1017.5hPa NE 4.2mph /  6.8km/h 9mph /  14.5km/h 51.2% 0.00in /  0mm 838 W/m2
10:49 85.1 °F /  29.5 °C 63.7 °F /  17.6 °C 30.05in /  1017.5hPa NNE 5.5mph /  8.9km/h 3.4mph /  5.5km/h 48.9% 0.00in /  0mm 772 W/m2
10:54 85.4 °F /  29.7 °C 63.8 °F /  17.7 °C 30.04in /  1017.2hPa NE 6mph /  9.7km/h 6mph /  9.7km/h 48.6% 0.00in /  0mm 858 W/m2
10:59 85.4 °F /  29.7 °C 63 °F /  17.2 °C 30.04in /  1017.2hPa ENE 8.1mph /  13km/h 7mph /  11.3km/h 47.3% 0.00in /  0mm 870 W/m2
11:04 85.4 °F /  29.7 °C 63.4 °F /  17.4 °C 30.04in /  1017.2hPa East 8.4mph /  13.5km/h 5.4mph /  8.7km/h 47.9% 0.00in /  0mm 880 W/m2
11:09 85.7 °F /  29.8 °C 63.3 °F /  17.4 °C 30.04in /  1017.2hPa East 8.7mph /  14km/h 10mph /  16.1km/h 47.3% 0.00in /  0mm 880 W/m2
11:14 86 °F /  30 °C 63.6 °F /  17.6 °C 30.04in /  1017.2hPa East 10.9mph /  17.5km/h 13mph /  20.9km/h 47.4% 0.00in /  0mm 286 W/m2
11:19 86.5 °F /  30.3 °C 63.4 °F /  17.4 °C 30.04in /  1017.2hPa ENE 6.3mph /  10.1km/h 13mph /  20.9km/h 46.2% 0.00in /  0mm 821 W/m2
11:24 86.6 °F /  30.3 °C 63.1 °F /  17.3 °C 30.04in /  1017.2hPa NE 6.9mph /  11.1km/h 7mph /  11.3km/h 45.4% 0.00in /  0mm 583 W/m2
11:29 86.9 °F /  30.5 °C 63.7 °F /  17.6 °C 30.04in /  1017.2hPa NE 6.7mph /  10.8km/h 6.3mph /  10.1km/h 46.2% 0.00in /  0mm 698 W/m2
11:34 87.4 °F /  30.8 °C 63.6 °F /  17.6 °C 30.04in /  1017.2hPa NE 5.4mph /  8.7km/h 5.4mph /  8.7km/h 45.3% 0.00in /  0mm 376 W/m2
11:39 87.9 °F /  31.1 °C 63.8 °F /  17.7 °C 30.03in /  1016.8hPa NE 6mph /  9.7km/h 7mph /  11.3km/h 44.8% 0.00in /  0mm 519 W/m2
11:44 88.2 °F /  31.2 °C 64.2 °F /  17.9 °C 30.03in /  1016.8hPa NE 5.1mph /  8.2km/h 8mph /  12.9km/h 45.1% 0.00in /  0mm 860 W/m2
11:49 88.4 °F /  31.3 °C 63.6 °F /  17.6 °C 30.03in /  1016.8hPa ENE 8.6mph /  13.8km/h 7.4mph /  11.9km/h 43.8% 0.00in /  0mm 940 W/m2
11:54 88.8 °F /  31.6 °C 64.3 °F /  17.9 °C 30.03in /  1016.8hPa NE 6.2mph /  10km/h 10mph /  16.1km/h 44.3% 0.00in /  0mm 944 W/m2
11:59 89.1 °F /  31.7 °C 64.2 °F /  17.9 °C 30.03in /  1016.8hPa NNE 6.6mph /  10.6km/h 7mph /  11.3km/h 43.8% 0.00in /  0mm 950 W/m2
12:04 89.5 °F /  31.9 °C 64.2 °F /  17.9 °C 30.03in /  1016.8hPa NNE 6.9mph /  11.1km/h 4.2mph /  6.8km/h 43.2% 0.00in /  0mm 953 W/m2
12:09 90 °F /  32.2 °C 64 °F /  17.8 °C 30.02in /  1016.5hPa North 8mph /  12.9km/h 4.9mph /  7.9km/h 42.3% 0.00in /  0mm 959 W/m2
12:14 90.5 °F /  32.5 °C 63.9 °F /  17.7 °C 30.02in /  1016.5hPa North 8.8mph /  14.2km/h 8mph /  12.9km/h 41.5% 0.00in /  0mm 960 W/m2
12:19 90.7 °F /  32.6 °C 62.9 °F /  17.2 °C 30.02in /  1016.5hPa North 7.5mph /  12.1km/h 10mph /  16.1km/h 39.8% 0.00in /  0mm 960 W/m2
12:24 90.7 °F /  32.6 °C 62.1 °F /  16.7 °C 30.02in /  1016.5hPa North 6.5mph /  10.5km/h 8mph /  12.9km/h 38.8% 0.00in /  0mm 960 W/m2
12:29 90.7 °F /  32.6 °C 62.5 °F /  16.9 °C 30.02in /  1016.5hPa North 6.3mph /  10.1km/h 7mph /  11.3km/h 39.2% 0.00in /  0mm 960 W/m2
12:34 91.2 °F /  32.9 °C 62.5 °F /  16.9 °C 30.02in /  1016.5hPa North 4.8mph /  7.7km/h 8mph /  12.9km/h 38.6% 0.00in /  0mm 937 W/m2
12:39 91.5 °F /  33.1 °C 62.8 °F /  17.1 °C 30.01in /  1016.1hPa NNW 7.4mph /  11.9km/h 8mph /  12.9km/h 38.7% 0.00in /  0mm 948 W/m2
12:44 91.4 °F /  33 °C 62 °F /  16.7 °C 30.01in /  1016.1hPa North 10.3mph /  16.6km/h 7.8mph /  12.6km/h 37.7% 0.00in /  0mm 954 W/m2
12:49 91.5 °F /  33.1 °C 62.7 °F /  17.1 °C 30.01in /  1016.1hPa NNE 7.8mph /  12.6km/h 13mph /  20.9km/h 38.5% 0.00in /  0mm 960 W/m2
12:54 91.8 °F /  33.2 °C 62.2 °F /  16.8 °C 30.01in /  1016.1hPa NNE 8.7mph /  14km/h 8mph /  12.9km/h 37.5% 0.00in /  0mm 960 W/m2
12:59 91.8 °F /  33.2 °C 62.1 °F /  16.7 °C 30.01in /  1016.1hPa NNE 5.9mph /  9.5km/h 11mph /  17.7km/h 37.4% 0.00in /  0mm 960 W/m2
13:04 91.7 °F /  33.2 °C 61.9 °F /  16.6 °C 30.01in /  1016.1hPa NNE 5.5mph /  8.9km/h 4.7mph /  7.6km/h 37.2% 0.00in /  0mm 960 W/m2
13:09 91.7 °F /  33.2 °C 62.3 °F /  16.8 °C 30.01in /  1016.1hPa ENE 6.1mph /  9.8km/h 6mph /  9.7km/h 37.8% 0.00in /  0mm 959 W/m2
13:14 91.7 °F /  33.2 °C 62 °F /  16.7 °C 30.00in /  1015.8hPa SSE 5.6mph /  9km/h 7mph /  11.3km/h 37.4% 0.00in /  0mm 959 W/m2
13:19 91.5 °F /  33.1 °C 61.9 °F /  16.6 °C 30.00in /  1015.8hPa SSW 4.7mph /  7.6km/h 6mph /  9.7km/h 37.5% 0.00in /  0mm 959 W/m2
13:24 91.5 °F /  33.1 °C 61.8 °F /  16.6 °C 30.00in /  1015.8hPa SE 6.3mph /  10.1km/h 5.6mph /  9km/h 37.3% 0.00in /  0mm 941 W/m2
13:29 91.5 °F /  33.1 °C 62.1 °F /  16.7 °C 30.00in /  1015.8hPa NE 3.6mph /  5.8km/h 7mph /  11.3km/h 37.8% 0.00in /  0mm 945 W/m2
13:34 91.7 °F /  33.2 °C 61.9 °F /  16.6 °C 30.00in /  1015.8hPa SW 5.6mph /  9km/h 5mph /  8km/h 37.2% 0.00in /  0mm 945 W/m2
13:39 91.2 °F /  32.9 °C 61.6 °F /  16.4 °C 30.00in /  1015.8hPa South 7.2mph /  11.6km/h 7mph /  11.3km/h 37.3% 0.00in /  0mm 946 W/m2
13:44 91.2 °F /  32.9 °C 61 °F /  16.1 °C 30.00in /  1015.8hPa South 5.5mph /  8.9km/h 8mph /  12.9km/h 36.6% 0.00in /  0mm 955 W/m2
13:49 91.5 °F /  33.1 °C 62.4 °F /  16.9 °C 29.99in /  1015.5hPa South 3.5mph /  5.6km/h 6mph /  9.7km/h 38% 0.00in /  0mm 955 W/m2
13:54 92.4 °F /  33.6 °C 62.6 °F /  17 °C 29.99in /  1015.5hPa West 6.6mph /  10.6km/h 4.2mph /  6.8km/h 37.4% 0.00in /  0mm 940 W/m2
13:59 92.8 °F /  33.8 °C 62.7 °F /  17.1 °C 29.99in /  1015.5hPa North 4.8mph /  7.7km/h 7mph /  11.3km/h 37% 0.00in /  0mm 917 W/m2
14:04 92.8 °F /  33.8 °C 63.5 °F /  17.5 °C 29.99in /  1015.5hPa NNE 4.7mph /  7.6km/h 5mph /  8km/h 38% 0.00in /  0mm 905 W/m2
14:09 93 °F /  33.9 °C 62.9 °F /  17.2 °C 29.99in /  1015.5hPa NE 7.7mph /  12.4km/h 6mph /  9.7km/h 37% 0.00in /  0mm 899 W/m2
14:14 93 °F /  33.9 °C 62.3 °F /  16.8 °C 29.99in /  1015.5hPa NE 5.5mph /  8.9km/h 8mph /  12.9km/h 36.3% 0.00in /  0mm 885 W/m2
14:19 92.8 °F /  33.8 °C 62.3 °F /  16.8 °C 29.99in /  1015.5hPa ENE 6.6mph /  10.6km/h 8mph /  12.9km/h 36.5% 0.00in /  0mm 890 W/m2
14:24 92.9 °F /  33.8 °C 62.7 °F /  17.1 °C 29.99in /  1015.5hPa East 6.8mph /  10.9km/h 4.5mph /  7.2km/h 36.8% 0.00in /  0mm 890 W/m2
14:29 93.3 °F /  34.1 °C 62.8 °F /  17.1 °C 29.99in /  1015.5hPa NE 6.5mph /  10.5km/h 7mph /  11.3km/h 36.6% 0.00in /  0mm 898 W/m2
14:34 93.5 °F /  34.2 °C 62.5 °F /  16.9 °C 29.99in /  1015.5hPa NNW 8mph /  12.9km/h 7mph /  11.3km/h 35.9% 0.00in /  0mm 898 W/m2
14:39 93.7 °F /  34.3 °C 62 °F /  16.7 °C 29.98in /  1015.1hPa NW 5.2mph /  8.4km/h 9mph /  14.5km/h 35.1% 0.00in /  0mm 893 W/m2
14:44 93.8 °F /  34.3 °C 62 °F /  16.7 °C 29.98in /  1015.1hPa NNW 4.2mph /  6.8km/h 6mph /  9.7km/h 35% 0.00in /  0mm 873 W/m2
14:49 93.9 °F /  34.4 °C 61.8 °F /  16.6 °C 29.98in /  1015.1hPa NW 5.2mph /  8.4km/h 5mph /  8km/h 34.6% 0.00in /  0mm 836 W/m2
14:54 93.7 °F /  34.3 °C 61 °F /  16.1 °C 29.98in /  1015.1hPa SW 5.1mph /  8.2km/h 6mph /  9.7km/h 33.9% 0.00in /  0mm 818 W/m2
14:59 93.6 °F /  34.2 °C 63.1 °F /  17.3 °C 29.98in /  1015.1hPa South 4.3mph /  6.9km/h 6mph /  9.7km/h 36.6% 0.00in /  0mm 816 W/m2
15:04 94.1 °F /  34.5 °C 61.7 °F /  16.5 °C 29.98in /  1015.1hPa SW 4.8mph /  7.7km/h 7mph /  11.3km/h 34.3% 0.00in /  0mm 816 W/m2
15:09 94.1 °F /  34.5 °C 61.9 °F /  16.6 °C 29.97in /  1014.8hPa SW 5.6mph /  9km/h 5mph /  8km/h 34.6% 0.00in /  0mm 813 W/m2
15:14 94 °F /  34.4 °C 61.9 °F /  16.6 °C 29.97in /  1014.8hPa SE 4.2mph /  6.8km/h 2.9mph /  4.7km/h 34.6% 0.00in /  0mm 794 W/m2
15:19 94.3 °F /  34.6 °C 62.8 °F /  17.1 °C 29.97in /  1014.8hPa NE 4mph /  6.4km/h 5mph /  8km/h 35.5% 0.00in /  0mm 805 W/m2
15:24 94.2 °F /  34.6 °C 62.2 °F /  16.8 °C 29.97in /  1014.8hPa NE 4.3mph /  6.9km/h 5mph /  8km/h 34.9% 0.00in /  0mm 795 W/m2
15:29 94.7 °F /  34.8 °C 64 °F /  17.8 °C 29.97in /  1014.8hPa ENE 4.6mph /  7.4km/h 5mph /  8km/h 36.5% 0.00in /  0mm 737 W/m2
15:34 94.8 °F /  34.9 °C 62.3 °F /  16.8 °C 29.97in /  1014.8hPa NE 3.5mph /  5.6km/h 7mph /  11.3km/h 34.2% 0.00in /  0mm 706 W/m2
15:39 94.3 °F /  34.6 °C 61.9 °F /  16.6 °C 29.97in /  1014.8hPa ENE 4.7mph /  7.6km/h 4mph /  6.4km/h 34.4% 0.00in /  0mm 699 W/m2
15:44 94.1 °F /  34.5 °C 63.5 °F /  17.5 °C 29.97in /  1014.8hPa ENE 6.5mph /  10.5km/h 6.5mph /  10.5km/h 36.5% 0.00in /  0mm 704 W/m2
15:49 94.3 °F /  34.6 °C 62.8 °F /  17.1 °C 29.96in /  1014.4hPa East 8.6mph /  13.8km/h 9mph /  14.5km/h 35.6% 0.00in /  0mm 704 W/m2
15:54 94.4 °F /  34.7 °C 63 °F /  17.2 °C 29.97in /  1014.8hPa ENE 8.5mph /  13.7km/h 5.6mph /  9km/h 35.6% 0.00in /  0mm 659 W/m2
15:59 93.9 °F /  34.4 °C 61.7 °F /  16.5 °C 29.97in /  1014.8hPa ENE 6.1mph /  9.8km/h 10mph /  16.1km/h 34.6% 0.00in /  0mm 659 W/m2
16:04 93.4 °F /  34.1 °C 61.4 °F /  16.3 °C 29.96in /  1014.4hPa ESE 6.6mph /  10.6km/h 8mph /  12.9km/h 34.8% 0.00in /  0mm 639 W/m2
16:09 93.7 °F /  34.3 °C 62.9 °F /  17.2 °C 29.96in /  1014.4hPa ESE 5.7mph /  9.2km/h 7mph /  11.3km/h 36.3% 0.00in /  0mm 618 W/m2
16:14 93.9 °F /  34.4 °C 62.1 °F /  16.7 °C 29.96in /  1014.4hPa ENE 6.8mph /  10.9km/h 8mph /  12.9km/h 35% 0.00in /  0mm 613 W/m2
16:19 94 °F /  34.4 °C 62 °F /  16.7 °C 29.96in /  1014.4hPa ENE 4.2mph /  6.8km/h 8mph /  12.9km/h 34.7% 0.00in /  0mm 613 W/m2
16:24 93.9 °F /  34.4 °C 61.6 °F /  16.4 °C 29.96in /  1014.4hPa NE 5.2mph /  8.4km/h 5mph /  8km/h 34.3% 0.00in /  0mm 572 W/m2
16:29 94.2 °F /  34.6 °C 63.1 °F /  17.3 °C 29.96in /  1014.4hPa North 4.4mph /  7.1km/h 6mph /  9.7km/h 35.9% 0.00in /  0mm 570 W/m2
16:34 94.5 °F /  34.7 °C 63.5 °F /  17.5 °C 29.96in /  1014.4hPa North 7.7mph /  12.4km/h 6.3mph /  10.1km/h 36.2% 0.00in /  0mm 552 W/m2
16:39 94.6 °F /  34.8 °C 62.5 °F /  16.9 °C 29.96in /  1014.4hPa North 5.9mph /  9.5km/h 10mph /  16.1km/h 34.8% 0.00in /  0mm 530 W/m2
16:44 94.4 °F /  34.7 °C 62.4 °F /  16.9 °C 29.96in /  1014.4hPa North 4.5mph /  7.2km/h 6mph /  9.7km/h 34.8% 0.00in /  0mm 524 W/m2
16:49 94.4 °F /  34.7 °C 62 °F /  16.7 °C 29.96in /  1014.4hPa NNE 3.5mph /  5.6km/h 5mph /  8km/h 34.4% 0.00in /  0mm 487 W/m2
16:54 94.4 °F /  34.7 °C 62.2 °F /  16.8 °C 29.96in /  1014.4hPa NNE 5.7mph /  9.2km/h 6mph /  9.7km/h 34.6% 0.00in /  0mm 453 W/m2
16:59 94.4 °F /  34.7 °C 62.1 °F /  16.7 °C 29.95in /  1014.1hPa North 7mph /  11.3km/h 7mph /  11.3km/h 34.5% 0.00in /  0mm 414 W/m2
17:04 94.1 °F /  34.5 °C 62.3 °F /  16.8 °C 29.95in /  1014.1hPa North 5mph /  8km/h 3.6mph /  5.8km/h 35% 0.00in /  0mm 135 W/m2
17:09 93.5 °F /  34.2 °C 61.5 °F /  16.4 °C 29.95in /  1014.1hPa North 4.2mph /  6.8km/h 6mph /  9.7km/h 34.6% 0.00in /  0mm 162 W/m2
17:13 92.9 °F /  33.8 °C 61.5 °F /  16.4 °C 29.95in /  1014.1hPa North 2.3mph /  3.7km/h 5mph /  8km/h 35.4% 0.00in /  0mm 126 W/m2
17:19 92.5 °F /  33.6 °C 62.1 °F /  16.7 °C 29.95in /  1014.1hPa North 2.3mph /  3.7km/h 3mph /  4.8km/h 36.6% 0.00in /  0mm 124 W/m2
17:24 92.1 °F /  33.4 °C 62.1 °F /  16.7 °C 29.95in /  1014.1hPa NNW 1.4mph /  2.3km/h 2mph /  3.2km/h 37% 0.00in /  0mm 141 W/m2
17:29 91.8 °F /  33.2 °C 61.9 °F /  16.6 °C 29.95in /  1014.1hPa NNW 0.1mph /  0.2km/h 2mph /  3.2km/h 37.2% 0.00in /  0mm 253 W/m2
17:34 91.4 °F /  33 °C 61.1 °F /  16.2 °C 29.95in /  1014.1hPa WNW 1.5mph /  2.4km/h 1.3mph /  2.1km/h 36.5% 0.00in /  0mm 316 W/m2
17:39 91.5 °F /  33.1 °C 60.4 °F /  15.8 °C 29.95in /  1014.1hPa SW 2mph /  3.2km/h 1.1mph /  1.8km/h 35.4% 0.00in /  0mm 309 W/m2
17:44 91.7 °F /  33.2 °C 60.7 °F /  15.9 °C 29.95in /  1014.1hPa ESE 2.9mph /  4.7km/h 3mph /  4.8km/h 35.7% 0.00in /  0mm 302 W/m2
17:49 91.8 °F /  33.2 °C 60.1 °F /  15.6 °C 29.95in /  1014.1hPa East 2.4mph /  3.9km/h 3mph /  4.8km/h 34.8% 0.00in /  0mm 292 W/m2
17:54 91.7 °F /  33.2 °C 59.6 °F /  15.3 °C 29.95in /  1014.1hPa ESE 3.1mph /  5km/h 3mph /  4.8km/h 34.3% 0.00in /  0mm 281 W/m2
17:59 91.8 °F /  33.2 °C 61.2 °F /  16.2 °C 29.95in /  1014.1hPa SE 3.5mph /  5.6km/h 3mph /  4.8km/h 36.2% 0.00in /  0mm 274 W/m2
18:04 92.1 °F /  33.4 °C 62.1 °F /  16.7 °C 29.95in /  1014.1hPa ENE 3.7mph /  6km/h 5mph /  8km/h 37% 0.00in /  0mm 262 W/m2
18:09 92.5 °F /  33.6 °C 62.7 °F /  17.1 °C 29.95in /  1014.1hPa NNE 2.6mph /  4.2km/h 5mph /  8km/h 37.4% 0.00in /  0mm 249 W/m2
18:14 92.8 °F /  33.8 °C 63.3 °F /  17.4 °C 29.95in /  1014.1hPa North 3.8mph /  6.1km/h 3.1mph /  5km/h 37.7% 0.00in /  0mm 233 W/m2
18:19 93 °F /  33.9 °C 63.1 °F /  17.3 °C 29.94in /  1013.8hPa North 7mph /  11.3km/h 6mph /  9.7km/h 37.3% 0.00in /  0mm 217 W/m2
18:24 92.9 °F /  33.8 °C 62.8 °F /  17.1 °C 29.95in /  1014.1hPa North 6.1mph /  9.8km/h 5.4mph /  8.7km/h 37% 0.00in /  0mm 204 W/m2
18:29 92.7 °F /  33.7 °C 63.1 °F /  17.3 °C 29.95in /  1014.1hPa NNE 4.1mph /  6.6km/h 8mph /  12.9km/h 37.7% 0.00in /  0mm 180 W/m2
18:34 92.5 °F /  33.6 °C 63.2 °F /  17.3 °C 29.95in /  1014.1hPa NNE 4mph /  6.4km/h 5mph /  8km/h 38% 0.00in /  0mm 158 W/m2
18:39 92.4 °F /  33.6 °C 63 °F /  17.2 °C 29.95in /  1014.1hPa NNE 2.9mph /  4.7km/h 5mph /  8km/h 37.9% 0.00in /  0mm 136 W/m2
18:44 92.3 °F /  33.5 °C 62.5 °F /  16.9 °C 29.95in /  1014.1hPa NNE 3.4mph /  5.5km/h 4mph /  6.4km/h 37.3% 0.00in /  0mm 115 W/m2
18:49 91.9 °F /  33.3 °C 62.3 °F /  16.8 °C 29.94in /  1013.8hPa NNE 4mph /  6.4km/h 5mph /  8km/h 37.5% 0.00in /  0mm 101 W/m2
18:54 91.6 °F /  33.1 °C 62.4 °F /  16.9 °C 29.94in /  1013.8hPa NNE 2.2mph /  3.5km/h 5mph /  8km/h 38% 0.00in /  0mm 87 W/m2
18:59 91.4 °F /  33 °C 62.4 °F /  16.9 °C 29.95in /  1014.1hPa North 2.2mph /  3.5km/h 2mph /  3.2km/h 38.3% 0.00in /  0mm 76 W/m2
19:04 91.1 °F /  32.8 °C 62.7 °F /  17.1 °C 29.95in /  1014.1hPa NNW 1.3mph /  2.1km/h 2mph /  3.2km/h 39% 0.00in /  0mm 64 W/m2
19:09 90.8 °F /  32.7 °C 62.9 °F /  17.2 °C 29.95in /  1014.1hPa NW 1.7mph /  2.7km/h 0.4mph /  0.6km/h 39.6% 0.00in /  0mm 55 W/m2
19:14 90.2 °F /  32.3 °C 62.6 °F /  17 °C 29.95in /  1014.1hPa NNW 2.2mph /  3.5km/h 0.9mph /  1.4km/h 40% 0.00in /  0mm 44 W/m2
19:19 89.7 °F /  32.1 °C 62.4 °F /  16.9 °C 29.95in /  1014.1hPa North 2.1mph /  3.4km/h 2mph /  3.2km/h 40.4% 0.00in /  0mm 37 W/m2
19:24 89.2 °F /  31.8 °C 62.8 °F /  17.1 °C 29.95in /  1014.1hPa North 2.1mph /  3.4km/h 3mph /  4.8km/h 41.6% 0.00in /  0mm 31 W/m2
19:29 88.5 °F /  31.4 °C 62.6 °F /  17 °C 29.95in /  1014.1hPa North 1.7mph /  2.7km/h 2mph /  3.2km/h 42.2% 0.00in /  0mm 25 W/m2
19:34 87.8 °F /  31 °C 62.4 °F /  16.9 °C 29.95in /  1014.1hPa North 1.3mph /  2.1km/h 2mph /  3.2km/h 42.8% 0.00in /  0mm 19 W/m2
19:39 87.2 °F /  30.7 °C 62.3 °F /  16.8 °C 29.95in /  1014.1hPa North 1.9mph /  3.1km/h 2mph /  3.2km/h 43.5% 0.00in /  0mm 14 W/m2
19:44 86.6 °F /  30.3 °C 62.1 °F /  16.7 °C 29.95in /  1014.1hPa North 1mph /  1.6km/h 2mph /  3.2km/h 44% 0.00in /  0mm 11 W/m2
19:49 85.9 °F /  29.9 °C 62 °F /  16.7 °C 29.95in /  1014.1hPa NNW 1.2mph /  1.9km/h 1mph /  1.6km/h 44.8% 0.00in /  0mm 7 W/m2
19:54 85.3 °F /  29.6 °C 62.7 °F /  17.1 °C 29.95in /  1014.1hPa SW 1.2mph /  1.9km/h 1mph /  1.6km/h 47% 0.00in /  0mm 4 W/m2
19:59 84.6 °F /  29.2 °C 62.7 °F /  17.1 °C 29.95in /  1014.1hPa SW 1.2mph /  1.9km/h 1.1mph /  1.8km/h 48% 0.00in /  0mm 3 W/m2
20:04 83.9 °F /  28.8 °C 62.2 °F /  16.8 °C 29.95in /  1014.1hPa West 0.4mph /  0.6km/h 2mph /  3.2km/h 48% 0.00in /  0mm 1 W/m2
20:09 83.3 °F /  28.5 °C 62.1 °F /  16.7 °C 29.96in /  1014.4hPa West 1.5mph /  2.4km/h 2mph /  3.2km/h 49% 0.00in /  0mm 0 W/m2
20:14 82.8 °F /  28.2 °C 62 °F /  16.7 °C 29.96in /  1014.4hPa WSW 2.5mph /  4km/h 2.2mph /  3.5km/h 49.5% 0.00in /  0mm 0 W/m2
20:19 82.2 °F /  27.9 °C 61.6 °F /  16.4 °C 29.96in /  1014.4hPa WSW 2.8mph /  4.5km/h 3mph /  4.8km/h 49.8% 0.00in /  0mm 0 W/m2
20:24 81.6 °F /  27.6 °C 61.1 °F /  16.2 °C 29.96in /  1014.4hPa WSW 3mph /  4.8km/h 3mph /  4.8km/h 50% 0.00in /  0mm 0 W/m2
20:29 80.8 °F /  27.1 °C 61.3 °F /  16.3 °C 29.96in /  1014.4hPa WSW 2.6mph /  4.2km/h 3mph /  4.8km/h 51.6% 0.00in /  0mm 0 W/m2
20:34 80 °F /  26.7 °C 61 °F /  16.1 °C 29.96in /  1014.4hPa SW 3.5mph /  5.6km/h 3mph /  4.8km/h 52.4% 0.00in /  0mm 0 W/m2
20:39 79.3 °F /  26.3 °C 60.8 °F /  16 °C 29.96in /  1014.4hPa SW 3.6mph /  5.8km/h 4mph /  6.4km/h 53.3% 0.00in /  0mm 0 W/m2
20:44 78.8 °F /  26 °C 60.7 °F /  15.9 °C 29.96in /  1014.4hPa SW 3.6mph /  5.8km/h 4mph /  6.4km/h 54% 0.00in /  0mm 0 W/m2
20:49 78.3 °F /  25.7 °C 60.4 °F /  15.8 °C 29.96in /  1014.4hPa WSW 3.6mph /  5.8km/h 3.1mph /  5km/h 54.3% 0.00in /  0mm 0 W/m2
20:54 77.9 °F /  25.5 °C 60 °F /  15.6 °C 29.96in /  1014.4hPa WSW 2.8mph /  4.5km/h 4mph /  6.4km/h 54.2% 0.00in /  0mm 0 W/m2
20:59 77.5 °F /  25.3 °C 60.1 °F /  15.6 °C 29.97in /  1014.8hPa WSW 4.1mph /  6.6km/h 4mph /  6.4km/h 55% 0.00in /  0mm 0 W/m2
21:04 77 °F /  25 °C 59.6 °F /  15.3 °C 29.97in /  1014.8hPa WSW 4.7mph /  7.6km/h 5mph /  8km/h 55% 0.00in /  0mm 0 W/m2
21:09 76.6 °F /  24.8 °C 59.8 °F /  15.4 °C 29.97in /  1014.8hPa West 3.7mph /  6km/h 3.4mph /  5.5km/h 56.2% 0.00in /  0mm 0 W/m2
21:14 76.1 °F /  24.5 °C 59.9 °F /  15.5 °C 29.97in /  1014.8hPa West 2.5mph /  4km/h 4mph /  6.4km/h 57.2% 0.00in /  0mm 0 W/m2
21:19 75.8 °F /  24.3 °C 59.8 °F /  15.4 °C 29.97in /  1014.8hPa WSW 2.7mph /  4.3km/h 3mph /  4.8km/h 57.6% 0.00in /  0mm 0 W/m2
21:24 75.3 °F /  24.1 °C 59.9 °F /  15.5 °C 29.97in /  1014.8hPa WSW 3.5mph /  5.6km/h 3.1mph /  5km/h 58.7% 0.00in /  0mm 0 W/m2
21:29 74.9 °F /  23.8 °C 59.6 °F /  15.3 °C 29.97in /  1014.8hPa West 3.1mph /  5km/h 2mph /  3.2km/h 59% 0.00in /  0mm 0 W/m2
21:34 74.4 °F /  23.6 °C 59.5 °F /  15.3 °C 29.97in /  1014.8hPa WNW 2.3mph /  3.7km/h 3mph /  4.8km/h 59.8% 0.00in /  0mm 0 W/m2
21:39 74 °F /  23.3 °C 59.3 °F /  15.2 °C 29.97in /  1014.8hPa WNW 2.3mph /  3.7km/h 2mph /  3.2km/h 60% 0.00in /  0mm 0 W/m2
21:44 73.8 °F /  23.2 °C 59 °F /  15 °C 29.97in /  1014.8hPa West 2.5mph /  4km/h 2mph /  3.2km/h 60% 0.00in /  0mm 0 W/m2
21:49 73.2 °F /  22.9 °C 58.9 °F /  14.9 °C 29.97in /  1014.8hPa WSW 3.5mph /  5.6km/h 3mph /  4.8km/h 60.8% 0.00in /  0mm 0 W/m2
21:54 72.9 °F /  22.7 °C 59.1 °F /  15.1 °C 29.97in /  1014.8hPa WSW 3.6mph /  5.8km/h 2.9mph /  4.7km/h 62% 0.00in /  0mm 0 W/m2
21:59 72.5 °F /  22.5 °C 59 °F /  15 °C 29.97in /  1014.8hPa WSW 3.3mph /  5.3km/h 4mph /  6.4km/h 62.6% 0.00in /  0mm 0 W/m2
22:04 72 °F /  22.2 °C 58.7 °F /  14.8 °C 29.98in /  1015.1hPa WSW 3.1mph /  5km/h 2.9mph /  4.7km/h 63% 0.00in /  0mm 0 W/m2
22:09 71.7 °F /  22.1 °C 58.4 °F /  14.7 °C 29.97in /  1014.8hPa WSW 3.5mph /  5.6km/h 4mph /  6.4km/h 63% 0.00in /  0mm 0 W/m2
22:14 71.3 °F /  21.8 °C 58.1 °F /  14.5 °C 29.98in /  1015.1hPa WNW 2.9mph /  4.7km/h 4mph /  6.4km/h 63% 0.00in /  0mm 0 W/m2
22:19 71.2 °F /  21.8 °C 58.2 °F /  14.6 °C 29.98in /  1015.1hPa WNW 2.7mph /  4.3km/h 3mph /  4.8km/h 63.6% 0.00in /  0mm 0 W/m2
22:24 71 °F /  21.7 °C 58.2 °F /  14.6 °C 29.98in /  1015.1hPa WSW 2.3mph /  3.7km/h 3mph /  4.8km/h 64% 0.00in /  0mm 0 W/m2
22:29 70.8 °F /  21.6 °C 58.1 °F /  14.5 °C 29.98in /  1015.1hPa SW 2.3mph /  3.7km/h 2mph /  3.2km/h 64.3% 0.00in /  0mm 0 W/m2
22:34 70.4 °F /  21.3 °C 57.7 °F /  14.3 °C 29.98in /  1015.1hPa SW 2.3mph /  3.7km/h 1.8mph /  2.9km/h 64% 0.00in /  0mm 0 W/m2
22:39 70.2 °F /  21.2 °C 57.7 °F /  14.3 °C 29.98in /  1015.1hPa SW 2.3mph /  3.7km/h 1.8mph /  2.9km/h 64.7% 0.00in /  0mm 0 W/m2
22:44 70 °F /  21.1 °C 57.7 °F /  14.3 °C 29.98in /  1015.1hPa WSW 1.2mph /  1.9km/h 2mph /  3.2km/h 65% 0.00in /  0mm 0 W/m2
22:49 69.7 °F /  20.9 °C 58.2 °F /  14.6 °C 29.98in /  1015.1hPa West 0.6mph /  1km/h 1mph /  1.6km/h 66.8% 0.00in /  0mm 0 W/m2
22:54 69.5 °F /  20.8 °C 58.1 °F /  14.5 °C 29.98in /  1015.1hPa Calm   1mph /  1.6km/h 67% 0.00in /  0mm 0 W/m2
22:59 69.3 °F /  20.7 °C 57.8 °F /  14.3 °C 29.98in /  1015.1hPa Calm     67% 0.00in /  0mm 0 W/m2
23:04 69.1 °F /  20.6 °C 58 °F /  14.4 °C 29.98in /  1015.1hPa North 0.5mph /  0.8km/h 0.4mph /  0.6km/h 67.8% 0.00in /  0mm 0 W/m2
23:09 68.9 °F /  20.5 °C 57.9 °F /  14.4 °C 29.98in /  1015.1hPa NNW 1.2mph /  1.9km/h 1mph /  1.6km/h 68.2% 0.00in /  0mm 0 W/m2
23:14 68.5 °F /  20.3 °C 58 °F /  14.4 °C 29.98in /  1015.1hPa West 0.3mph /  0.5km/h 1mph /  1.6km/h 69% 0.00in /  0mm 0 W/m2
23:19 68.3 °F /  20.2 °C 57.7 °F /  14.3 °C 29.98in /  1015.1hPa West 2.1mph /  3.4km/h 2mph /  3.2km/h 69% 0.00in /  0mm 0 W/m2
23:24 68.2 °F /  20.1 °C 57.6 °F /  14.2 °C 29.98in /  1015.1hPa North 2.1mph /  3.4km/h 2mph /  3.2km/h 69% 0.00in /  0mm 0 W/m2
23:29 68 °F /  20 °C 57.8 °F /  14.3 °C 29.98in /  1015.1hPa NNE 1.1mph /  1.8km/h 2mph /  3.2km/h 69.8% 0.00in /  0mm 0 W/m2
23:34 67.8 °F /  19.9 °C 57.7 °F /  14.3 °C 29.98in /  1015.1hPa WNW 1.3mph /  2.1km/h 2mph /  3.2km/h 70% 0.00in /  0mm 0 W/m2
23:39 67.5 °F /  19.7 °C 57.3 °F /  14.1 °C 29.98in /  1015.1hPa Calm   1mph /  1.6km/h 70% 0.00in /  0mm 0 W/m2
23:44 67.2 °F /  19.6 °C 57.6 °F /  14.2 °C 29.98in /  1015.1hPa Calm     71.4% 0.00in /  0mm 0 W/m2
23:49 66.9 °F /  19.4 °C 57.6 °F /  14.2 °C 29.98in /  1015.1hPa West 1.1mph /  1.8km/h 1.1mph /  1.8km/h 72% 0.00in /  0mm 0 W/m2
23:54 66.6 °F /  19.2 °C 57.3 °F /  14.1 °C 29.98in /  1015.1hPa West 0.8mph /  1.3km/h 1mph /  1.6km/h 72% 0.00in /  0mm 0 W/m2
23:59 66.4 °F /  19.1 °C 57.3 °F /  14.1 °C 29.99in /  1015.5hPa Calm   1mph /  1.6km/h 72.6% 0.00in /  0mm 0 W/m2
Knjazevac, Serbia
Compliments of Weather Underground - 4 mb